createdAt,value
2023-04-03T00:01:09.198Z,98795.00
2023-04-03T00:03:36.196Z,98782.00
2023-04-03T00:06:03.607Z,98788.00
2023-04-03T00:08:30.685Z,98773.00
2023-04-03T00:10:58.032Z,98788.00
2023-04-03T00:13:25.498Z,98775.00
2023-04-03T00:15:52.904Z,98783.00
2023-04-03T00:18:19.991Z,98776.00
2023-04-03T00:20:47.008Z,98781.00
2023-04-03T00:23:13.916Z,98784.00
2023-04-03T00:25:40.853Z,98783.00
2023-04-03T00:28:07.920Z,98781.00
2023-04-03T00:30:35.161Z,98771.00
2023-04-03T00:33:02.375Z,98769.00
2023-04-03T00:35:29.766Z,98778.00
2023-04-03T00:37:56.848Z,98770.00
2023-04-03T00:40:25.460Z,98771.00
2023-04-03T00:42:59.712Z,98765.00
2023-04-03T00:45:37.377Z,98769.00
2023-04-03T00:48:06.952Z,98771.00
2023-04-03T00:50:46.054Z,98750.00
2023-04-03T00:53:17.762Z,98749.00
2023-04-03T00:55:44.730Z,98754.00
2023-04-03T00:58:11.651Z,98770.00
2023-04-03T01:00:40.544Z,98762.00
2023-04-03T01:03:07.406Z,98764.00
2023-04-03T01:05:34.374Z,98764.00
2023-04-03T01:08:01.320Z,98774.00
2023-04-03T01:10:28.242Z,98765.00
2023-04-03T01:12:55.198Z,98741.00
2023-04-03T01:15:25.341Z,98756.00
2023-04-03T01:17:55.934Z,98760.00
2023-04-03T01:20:35.436Z,98759.00
2023-04-03T01:23:13.820Z,98772.00
2023-04-03T01:25:55.325Z,98754.00
2023-04-03T01:28:34.235Z,98759.00
2023-04-03T01:31:16.115Z,98760.00
2023-04-03T01:33:43.533Z,98757.00
2023-04-03T01:36:17.668Z,98761.00
2023-04-03T01:38:44.603Z,98760.00
2023-04-03T01:41:11.536Z,98754.00
2023-04-03T01:43:42.674Z,98748.00
2023-04-03T01:46:09.715Z,98747.00
2023-04-03T01:48:36.643Z,98750.00
2023-04-03T01:51:03.672Z,98750.00
2023-04-03T01:53:30.568Z,98748.00
2023-04-03T01:55:57.579Z,98751.00
2023-04-03T01:58:24.535Z,98754.00
2023-04-03T02:00:52.634Z,98729.00
2023-04-03T02:03:19.712Z,98738.00
2023-04-03T02:05:46.696Z,98744.00
2023-04-03T02:08:13.650Z,98749.00
2023-04-03T02:10:40.807Z,98721.00
2023-04-03T02:13:07.713Z,98723.00
2023-04-03T02:15:34.750Z,98727.00
2023-04-03T02:18:01.839Z,98734.00
2023-04-03T02:20:34.529Z,98734.00
2023-04-03T02:23:01.654Z,98726.00
2023-04-03T02:25:28.572Z,98720.00
2023-04-03T02:27:59.678Z,98727.00
2023-04-03T02:30:26.783Z,98738.00
2023-04-03T02:33:04.113Z,98719.00
2023-04-03T02:35:31.160Z,98713.00
2023-04-03T02:38:02.382Z,98721.00
2023-04-03T02:40:29.453Z,98718.00
2023-04-03T02:42:56.439Z,98711.00
2023-04-03T02:45:23.328Z,98725.00
2023-04-03T02:47:50.331Z,98714.00
2023-04-03T02:50:17.267Z,98711.00
2023-04-03T02:52:44.191Z,98698.00
2023-04-03T02:55:14.812Z,98706.00
2023-04-03T02:57:41.834Z,98697.00
2023-04-03T03:00:11.582Z,98703.00
2023-04-03T03:02:38.596Z,98694.00
2023-04-03T03:05:05.972Z,98702.00
2023-04-03T03:07:33.153Z,98703.00
2023-04-03T03:10:00.163Z,98714.00
2023-04-03T03:12:27.191Z,98712.00
2023-04-03T03:14:54.149Z,98696.00
2023-04-03T03:17:21.138Z,98714.00
2023-04-03T03:19:48.028Z,98706.00
2023-04-03T03:22:14.905Z,98704.00
2023-04-03T03:24:41.842Z,98691.00
2023-04-03T03:27:08.818Z,98708.00
2023-04-03T03:29:35.740Z,98708.00
2023-04-03T03:32:02.663Z,98687.00
2023-04-03T03:34:29.570Z,98699.00
2023-04-03T03:36:56.489Z,98692.00
2023-04-03T03:39:23.408Z,98688.00
2023-04-03T03:41:50.305Z,98682.00
2023-04-03T03:44:17.231Z,98685.00
2023-04-03T03:46:44.246Z,98691.00
2023-04-03T03:49:11.231Z,98689.00
2023-04-03T03:51:39.120Z,98684.00
2023-04-03T03:54:06.417Z,98689.00
2023-04-03T03:56:33.633Z,98689.00
2023-04-03T03:59:00.614Z,98687.00
2023-04-03T04:01:27.664Z,98687.00
2023-04-03T04:03:54.675Z,98689.00
2023-04-03T04:06:21.736Z,98675.00
2023-04-03T04:08:48.677Z,98672.00
2023-04-03T04:11:15.658Z,98681.00
2023-04-03T04:13:42.597Z,98679.00
2023-04-03T04:16:09.494Z,98666.00
2023-04-03T04:18:36.546Z,98670.00
2023-04-03T04:21:03.602Z,98679.00
2023-04-03T04:23:30.501Z,98674.00
2023-04-03T04:25:57.392Z,98679.00
2023-04-03T04:28:24.275Z,98682.00
2023-04-03T04:30:51.276Z,98683.00
2023-04-03T04:33:18.215Z,98669.00
2023-04-03T04:35:45.318Z,98687.00
2023-04-03T04:38:12.344Z,98671.00
2023-04-03T04:40:39.302Z,98678.00
2023-04-03T04:43:06.235Z,98681.00
2023-04-03T04:45:33.188Z,98681.00
2023-04-03T04:48:00.202Z,98683.00
2023-04-03T04:50:27.269Z,98658.00
2023-04-03T04:52:54.158Z,98656.00
2023-04-03T04:55:21.089Z,98672.00
2023-04-03T04:57:48.059Z,98673.00
2023-04-03T05:00:15.892Z,98668.00
2023-04-03T05:02:42.888Z,98668.00
2023-04-03T05:05:10.161Z,98683.00
2023-04-03T05:07:37.358Z,98683.00
2023-04-03T05:10:04.911Z,98672.00
2023-04-03T05:12:32.789Z,98668.00
2023-04-03T05:14:59.761Z,98673.00
2023-04-03T05:17:26.747Z,98677.00
2023-04-03T05:19:53.675Z,98682.00
2023-04-03T05:22:20.606Z,98671.00
2023-04-03T05:24:47.560Z,98693.00
2023-04-03T05:27:14.471Z,98686.00
2023-04-03T05:29:42.575Z,98672.00
2023-04-03T05:32:11.455Z,98678.00
2023-04-03T05:34:38.498Z,98672.00
2023-04-03T05:37:05.453Z,98600.00
2023-04-03T05:39:32.685Z,98574.00
2023-04-03T05:41:59.652Z,98564.00
2023-04-03T05:44:26.600Z,98666.00
2023-04-03T05:46:53.561Z,98701.00
2023-04-03T05:49:20.519Z,98696.00
2023-04-03T05:51:47.522Z,98685.00
2023-04-03T05:54:30.633Z,98692.00
2023-04-03T05:56:57.799Z,98697.00
2023-04-03T05:59:25.953Z,98693.00
2023-04-03T06:01:52.962Z,98703.00
2023-04-03T06:04:20.126Z,98701.00
2023-04-03T06:06:50.254Z,98700.00
2023-04-03T06:09:17.242Z,98703.00
2023-04-03T06:11:44.363Z,98690.00
2023-04-03T06:14:11.522Z,98692.00
2023-04-03T06:16:39.837Z,98704.00
2023-04-03T06:19:10.380Z,98701.00
2023-04-03T06:21:37.282Z,98697.00
2023-04-03T06:24:05.408Z,98708.00
2023-04-03T06:26:32.600Z,98701.00
2023-04-03T06:28:59.546Z,98636.00
2023-04-03T06:31:26.587Z,98594.00
2023-04-03T06:33:53.621Z,98684.00
2023-04-03T06:36:21.366Z,98640.00
2023-04-03T06:38:48.831Z,98630.00
2023-04-03T06:41:15.832Z,98624.00
2023-04-03T06:43:43.201Z,98709.00
2023-04-03T06:46:17.762Z,98643.00
2023-04-03T06:48:45.082Z,98639.00
2023-04-03T06:51:28.430Z,98641.00
2023-04-03T06:53:59.818Z,98652.00
2023-04-03T06:56:27.134Z,98647.00
2023-04-03T06:58:55.349Z,98642.00
2023-04-03T07:01:22.414Z,98643.00
2023-04-03T07:03:49.429Z,98644.00
2023-04-03T07:06:17.549Z,98642.00
2023-04-03T07:08:44.727Z,98651.00
2023-04-03T07:11:11.718Z,98635.00
2023-04-03T07:13:38.798Z,98643.00
2023-04-03T07:16:06.366Z,98648.00
2023-04-03T07:18:33.913Z,98655.00
2023-04-03T07:21:01.688Z,98645.00
2023-04-03T07:23:28.636Z,98652.00
2023-04-03T07:25:55.627Z,98642.00
2023-04-03T07:28:23.179Z,98639.00
2023-04-03T07:31:13.847Z,98364.00
2023-04-03T07:33:41.220Z,98630.00
2023-04-03T07:36:08.609Z,98630.00
2023-04-03T07:38:36.308Z,98633.00
2023-04-03T07:41:04.138Z,98636.00
2023-04-03T07:43:31.063Z,98632.00
2023-04-03T07:45:58.066Z,98625.00
2023-04-03T07:48:25.984Z,98621.00
2023-04-03T07:50:52.969Z,98612.00
2023-04-03T07:53:19.968Z,98613.00
2023-04-03T07:55:50.361Z,98632.00
2023-04-03T07:58:18.493Z,98634.00
2023-04-03T08:00:45.850Z,98631.00
2023-04-03T08:03:13.236Z,98635.00
2023-04-03T08:05:41.588Z,98635.00
2023-04-03T08:08:08.910Z,98612.00
2023-04-03T08:10:35.968Z,98615.00
2023-04-03T08:13:02.908Z,98603.00
2023-04-03T08:15:30.923Z,98597.00
2023-04-03T08:17:58.170Z,98593.00
2023-04-03T08:20:28.485Z,98597.00
2023-04-03T08:22:55.467Z,98593.00
2023-04-03T08:25:22.626Z,98574.00
2023-04-03T08:27:49.590Z,98574.00
2023-04-03T08:30:16.556Z,98561.00
2023-04-03T08:32:43.566Z,98563.00
2023-04-03T08:35:10.887Z,98564.00
2023-04-03T08:37:38.432Z,98551.00
2023-04-03T08:40:07.836Z,98557.00
2023-04-03T08:42:52.425Z,98548.00
2023-04-03T08:45:54.419Z,98546.00
2023-04-03T08:48:41.868Z,98557.00
2023-04-03T08:51:20.318Z,98549.00
2023-04-03T08:54:02.273Z,98557.00
2023-04-03T08:56:29.365Z,98546.00
2023-04-03T08:59:05.753Z,98542.00
2023-04-03T09:01:40.753Z,98540.00
2023-04-03T09:04:20.450Z,98548.00
2023-04-03T09:06:56.713Z,98557.00
2023-04-03T09:09:42.848Z,98540.00
2023-04-03T09:12:18.608Z,98529.00
2023-04-03T09:15:07.361Z,98520.00
2023-04-03T09:17:46.133Z,98509.00
2023-04-03T09:20:33.581Z,98507.00
2023-04-03T09:23:00.547Z,98515.00
2023-04-03T09:25:32.254Z,98521.00
2023-04-03T09:28:00.319Z,98521.00
2023-04-03T09:30:27.352Z,98527.00
2023-04-03T09:32:56.307Z,98545.00
2023-04-03T09:35:40.456Z,98542.00
2023-04-03T09:38:13.902Z,98548.00
2023-04-03T09:40:41.407Z,98561.00
2023-04-03T09:43:24.561Z,98566.00
2023-04-03T09:45:51.940Z,98571.00
2023-04-03T09:48:26.142Z,98575.00
2023-04-03T09:50:53.020Z,98569.00
2023-04-03T09:53:42.970Z,98595.00
2023-04-03T09:56:18.998Z,98601.00
2023-04-03T09:58:52.945Z,98606.00
2023-04-03T10:01:37.004Z,98617.00
2023-04-03T10:04:24.292Z,98616.00
2023-04-03T10:06:55.987Z,98620.00
2023-04-03T10:09:33.262Z,98621.00
2023-04-03T10:12:10.754Z,98614.00
2023-04-03T10:14:54.455Z,98603.00
2023-04-03T10:17:37.424Z,98583.00
2023-04-03T10:20:26.943Z,98570.00
2023-04-03T10:23:05.150Z,98564.00
2023-04-03T10:25:50.115Z,98546.00
2023-04-03T10:29:18.226Z,98552.00
2023-04-03T10:32:04.220Z,98564.00
2023-04-03T10:34:39.960Z,98563.00
2023-04-03T10:37:25.636Z,98569.00
2023-04-03T10:39:58.726Z,98542.00
2023-04-03T10:42:45.783Z,98556.00
2023-04-03T10:45:27.501Z,98550.00
2023-04-03T10:48:17.059Z,98548.00
2023-04-03T10:51:32.731Z,98570.00
2023-04-03T10:54:17.536Z,98576.00
2023-04-03T10:57:04.610Z,98575.00
2023-04-03T10:59:47.129Z,98577.00
2023-04-03T11:02:35.938Z,98574.00
2023-04-03T11:05:09.336Z,98583.00
2023-04-03T11:07:41.680Z,98569.00
2023-04-03T11:10:37.775Z,98578.00
2023-04-03T11:13:28.029Z,98585.00
2023-04-03T11:15:55.204Z,98580.00
2023-04-03T11:18:43.940Z,98587.00
2023-04-03T11:21:34.632Z,98577.00
2023-04-03T11:24:01.606Z,98573.00
2023-04-03T11:26:32.170Z,98574.00
2023-04-03T11:29:06.502Z,98581.00
2023-04-03T11:32:15.340Z,98575.00
2023-04-03T11:34:52.579Z,98577.00
2023-04-03T11:37:37.754Z,98576.00
2023-04-03T11:40:17.383Z,98567.00
2023-04-03T11:42:48.830Z,98567.00
2023-04-03T11:45:24.984Z,98572.00
2023-04-03T11:48:16.584Z,98565.00
2023-04-03T11:50:50.574Z,98573.00
2023-04-03T11:53:17.485Z,98524.00
2023-04-03T11:55:45.251Z,98546.00
2023-04-03T11:58:20.646Z,98540.00
2023-04-03T12:00:55.881Z,98536.00
2023-04-03T12:03:25.990Z,98536.00
2023-04-03T12:05:57.965Z,98527.00
2023-04-03T12:08:44.377Z,98523.00
2023-04-03T12:11:14.561Z,98526.00
2023-04-03T12:13:41.656Z,98521.00
2023-04-03T12:16:27.298Z,98525.00
2023-04-03T12:18:54.297Z,98518.00
2023-04-03T12:21:37.166Z,98511.00
2023-04-03T12:24:10.252Z,98504.00
2023-04-03T12:26:58.351Z,98501.00
2023-04-03T12:29:34.166Z,98485.00
2023-04-03T12:32:27.379Z,98484.00
2023-04-03T12:35:28.932Z,98477.00
2023-04-03T12:38:32.209Z,98482.00
2023-04-03T12:41:20.041Z,98469.00
2023-04-03T12:44:27.243Z,98460.00
2023-04-03T12:46:54.536Z,98449.00
2023-04-03T12:49:40.484Z,98444.00
2023-04-03T12:52:33.841Z,98440.00
2023-04-03T12:55:01.654Z,98433.00
2023-04-03T12:57:28.880Z,98435.00
2023-04-03T12:59:55.929Z,98434.00
2023-04-03T13:02:30.481Z,98442.00
2023-04-03T13:05:08.422Z,98441.00
2023-04-03T13:07:37.630Z,98439.00
2023-04-03T13:10:07.829Z,98435.00
2023-04-03T13:12:56.183Z,98434.00
2023-04-03T13:15:30.914Z,98420.00
2023-04-03T13:17:57.995Z,98425.00
2023-04-03T13:20:30.815Z,98405.00
2023-04-03T13:23:06.341Z,98397.00
2023-04-03T13:25:34.691Z,98408.00
2023-04-03T13:28:12.568Z,98401.00
2023-04-03T13:30:41.208Z,98403.00
2023-04-03T13:33:28.368Z,98386.00
2023-04-03T13:36:23.237Z,98384.00
2023-04-03T13:39:16.633Z,98382.00
2023-04-03T13:41:51.978Z,98381.00
2023-04-03T13:44:28.913Z,98363.00
2023-04-03T13:47:08.967Z,98372.00
2023-04-03T13:49:45.270Z,98375.00
2023-04-03T13:52:25.659Z,98357.00
2023-04-03T13:54:58.267Z,98350.00
2023-04-03T13:57:25.465Z,98365.00
2023-04-03T13:59:52.517Z,98359.00
2023-04-03T14:02:29.961Z,98350.00
2023-04-03T14:04:59.406Z,98351.00
2023-04-03T14:07:26.558Z,98344.00
2023-04-03T14:09:53.688Z,98348.00
2023-04-03T14:12:33.941Z,98350.00
2023-04-03T14:15:08.304Z,98343.00
2023-04-03T14:17:35.245Z,98348.00
2023-04-03T14:20:02.172Z,98341.00
2023-04-03T14:22:32.050Z,98354.00
2023-04-03T14:24:59.572Z,98341.00
2023-04-03T14:27:39.995Z,98336.00
2023-04-03T14:30:12.973Z,98338.00
2023-04-03T14:32:40.059Z,98332.00
2023-04-03T14:35:07.334Z,98339.00
2023-04-03T14:37:34.373Z,98335.00
2023-04-03T14:40:02.587Z,98328.00
2023-04-03T14:42:35.412Z,98337.00
2023-04-03T14:45:04.069Z,98337.00
2023-04-03T14:47:32.126Z,98336.00
2023-04-03T14:50:04.738Z,98337.00
2023-04-03T14:52:34.791Z,98333.00
2023-04-03T14:55:01.976Z,98331.00
2023-04-03T14:57:29.728Z,98329.00
2023-04-03T14:59:56.873Z,98324.00
2023-04-03T15:02:36.614Z,98326.00
2023-04-03T15:05:06.996Z,98325.00
2023-04-03T15:07:42.344Z,98321.00
2023-04-03T15:10:41.817Z,98326.00
2023-04-03T15:13:09.902Z,98329.00
2023-04-03T15:15:37.110Z,98322.00
2023-04-03T15:18:04.271Z,98313.00
2023-04-03T15:20:31.256Z,98334.00
2023-04-03T15:22:58.357Z,98335.00
2023-04-03T15:25:25.647Z,98333.00
2023-04-03T15:27:56.379Z,98339.00
2023-04-03T15:30:23.456Z,98336.00
2023-04-03T15:32:50.526Z,98337.00
2023-04-03T15:35:17.633Z,98343.00
2023-04-03T15:37:44.631Z,98346.00
2023-04-03T15:40:12.036Z,98342.00
2023-04-03T15:42:39.180Z,98347.00
2023-04-03T15:45:07.334Z,98344.00
2023-04-03T15:47:34.397Z,98359.00
2023-04-03T15:50:01.549Z,98311.00
2023-04-03T15:52:28.689Z,98297.00
2023-04-03T15:54:55.669Z,98295.00
2023-04-03T15:57:22.745Z,98287.00
2023-04-03T15:59:49.743Z,98290.00
2023-04-03T16:02:16.688Z,98299.00
2023-04-03T16:04:43.690Z,98329.00
2023-04-03T16:07:10.714Z,98337.00
2023-04-03T16:09:37.773Z,98350.00
2023-04-03T16:12:04.841Z,98353.00
2023-04-03T16:14:31.825Z,98358.00
2023-04-03T16:17:01.426Z,98352.00
2023-04-03T16:19:28.472Z,98360.00
2023-04-03T16:21:55.801Z,98340.00
2023-04-03T16:24:23.125Z,98360.00
2023-04-03T16:26:50.188Z,98362.00
2023-04-03T16:29:17.237Z,98373.00
2023-04-03T16:31:44.323Z,98383.00
2023-04-03T16:34:11.378Z,98373.00
2023-04-03T16:36:38.377Z,98348.00
2023-04-03T16:39:05.494Z,98337.00
2023-04-03T16:41:32.550Z,98324.00
2023-04-03T16:43:59.537Z,98324.00
2023-04-03T16:46:26.538Z,98330.00
2023-04-03T16:48:53.667Z,98326.00
2023-04-03T16:51:20.649Z,98324.00
2023-04-03T16:53:47.639Z,98310.00
2023-04-03T16:56:14.681Z,98318.00
2023-04-03T16:58:41.690Z,98323.00
2023-04-03T17:01:17.326Z,98320.00
2023-04-03T17:03:44.511Z,98327.00
2023-04-03T17:06:13.598Z,98325.00
2023-04-03T17:08:40.597Z,98333.00
2023-04-03T17:11:07.649Z,98331.00
2023-04-03T17:13:34.828Z,98344.00
2023-04-03T17:16:02.243Z,98338.00
2023-04-03T17:18:29.247Z,98335.00
2023-04-03T17:20:56.884Z,98333.00
2023-04-03T17:23:27.471Z,98345.00
2023-04-03T17:25:54.489Z,98349.00
2023-04-03T17:28:22.789Z,98364.00
2023-04-03T17:30:49.763Z,98349.00
2023-04-03T17:33:16.885Z,98355.00
2023-04-03T17:35:43.810Z,98358.00
2023-04-03T17:38:10.902Z,98364.00
2023-04-03T17:40:37.868Z,98372.00
2023-04-03T17:43:04.952Z,98374.00
2023-04-03T17:45:31.929Z,98393.00
2023-04-03T17:47:58.907Z,98370.00
2023-04-03T17:50:25.888Z,98388.00
2023-04-03T17:52:52.860Z,98370.00
2023-04-03T17:55:19.827Z,98389.00
2023-04-03T17:57:46.845Z,98407.00
2023-04-03T18:00:14.783Z,98407.00
2023-04-03T18:02:41.933Z,98408.00
2023-04-03T18:05:09.962Z,98425.00
2023-04-03T18:07:39.986Z,98426.00
2023-04-03T18:10:07.877Z,98443.00
2023-04-03T18:12:36.020Z,98446.00
2023-04-03T18:15:04.273Z,98451.00
2023-04-03T18:17:31.357Z,98465.00
2023-04-03T18:19:58.445Z,98466.00
2023-04-03T18:22:25.479Z,98451.00
2023-04-03T18:24:52.812Z,98475.00
2023-04-03T18:27:22.048Z,98474.00
2023-04-03T18:29:52.650Z,98487.00
2023-04-03T18:32:20.531Z,98482.00
2023-04-03T18:34:47.491Z,98492.00
2023-04-03T18:37:15.404Z,98489.00
2023-04-03T18:39:42.432Z,98507.00
2023-04-03T18:42:16.564Z,98514.00
2023-04-03T18:44:44.706Z,98524.00
2023-04-03T18:47:11.929Z,98528.00
2023-04-03T18:49:40.356Z,98522.00
2023-04-03T18:52:07.544Z,98536.00
2023-04-03T18:54:34.622Z,98531.00
2023-04-03T18:57:01.675Z,98540.00
2023-04-03T18:59:28.767Z,98546.00
2023-04-03T19:01:55.974Z,98551.00
2023-04-03T19:04:23.414Z,98552.00
2023-04-03T19:06:50.505Z,98558.00
2023-04-03T19:09:17.621Z,98555.00
2023-04-03T19:11:44.617Z,98559.00
2023-04-03T19:14:16.477Z,98557.00
2023-04-03T19:16:44.423Z,98554.00
2023-04-03T19:19:11.561Z,98558.00
2023-04-03T19:21:38.621Z,98577.00
2023-04-03T19:24:05.943Z,98595.00
2023-04-03T19:26:32.872Z,98588.00
2023-04-03T19:28:59.804Z,98612.00
2023-04-03T19:31:26.748Z,98606.00
2023-04-03T19:33:53.864Z,98617.00
2023-04-03T19:36:20.941Z,98607.00
2023-04-03T19:38:48.015Z,98620.00
2023-04-03T19:41:20.585Z,98614.00
2023-04-03T19:43:48.281Z,98626.00
2023-04-03T19:46:15.293Z,98638.00
2023-04-03T19:48:42.268Z,98648.00
2023-04-03T19:51:09.324Z,98638.00
2023-04-03T19:53:36.388Z,98652.00
2023-04-03T19:56:03.548Z,98668.00
2023-04-03T19:58:30.553Z,98668.00
2023-04-03T20:00:58.216Z,98665.00
2023-04-03T20:03:25.495Z,98664.00
2023-04-03T20:05:53.725Z,98668.00
2023-04-03T20:08:20.934Z,98674.00
2023-04-03T20:10:47.999Z,98673.00
2023-04-03T20:13:15.040Z,98679.00
2023-04-03T20:15:42.389Z,98682.00
2023-04-03T20:18:10.741Z,98691.00
2023-04-03T20:20:38.154Z,98693.00
2023-04-03T20:23:05.349Z,98686.00
2023-04-03T20:28:02.178Z,98694.00
2023-04-03T20:30:29.270Z,98697.00
2023-04-03T20:32:56.294Z,98702.00
2023-04-03T20:35:23.348Z,98704.00
2023-04-03T20:37:50.299Z,98702.00
2023-04-03T20:40:17.344Z,98709.00
2023-04-03T20:42:44.421Z,98717.00
2023-04-03T20:45:11.633Z,98714.00
2023-04-03T20:47:38.721Z,98712.00
2023-04-03T20:50:06.622Z,98718.00
2023-04-03T20:52:36.207Z,98711.00
2023-04-03T20:55:03.846Z,98717.00
2023-04-03T20:57:30.771Z,98720.00
2023-04-03T20:59:57.805Z,98727.00
2023-04-03T21:02:24.767Z,98731.00
2023-04-03T21:04:54.707Z,98723.00
2023-04-03T21:08:18.325Z,98740.00
2023-04-03T21:11:41.728Z,98745.00
2023-04-03T21:15:05.338Z,98756.00
2023-04-03T21:17:32.224Z,98757.00
2023-04-03T21:19:59.252Z,98749.00
2023-04-03T21:22:26.191Z,98756.00
2023-04-03T21:24:53.270Z,98764.00
2023-04-03T21:27:20.275Z,98763.00
2023-04-03T21:29:47.248Z,98751.00
2023-04-03T21:32:14.211Z,98764.00
2023-04-03T21:34:41.281Z,98763.00
2023-04-03T21:37:08.434Z,98756.00
2023-04-03T21:39:35.437Z,98763.00
2023-04-03T21:42:02.372Z,98764.00
2023-04-03T21:44:29.398Z,98770.00
2023-04-03T21:46:56.419Z,98771.00
2023-04-03T21:49:24.245Z,98768.00
2023-04-03T21:51:51.228Z,98753.00
2023-04-03T21:54:18.400Z,98785.00
2023-04-03T21:56:46.047Z,98785.00
2023-04-03T21:59:13.384Z,98777.00
2023-04-03T22:01:40.741Z,98788.00
2023-04-03T22:04:07.768Z,98791.00
2023-04-03T22:06:34.902Z,98798.00
2023-04-03T22:09:01.853Z,98799.00
2023-04-03T22:11:28.852Z,98798.00
2023-04-03T22:13:55.986Z,98793.00
2023-04-03T22:16:23.637Z,98793.00
2023-04-03T22:18:51.436Z,98805.00
2023-04-03T22:21:18.718Z,98804.00
2023-04-03T22:23:45.781Z,98797.00
2023-04-03T22:26:13.375Z,98809.00
2023-04-03T22:28:49.401Z,98815.00
2023-04-03T22:31:16.955Z,98816.00
2023-04-03T22:33:44.958Z,98818.00
2023-04-03T22:36:13.279Z,98814.00
2023-04-03T22:38:40.730Z,98823.00
2023-04-03T22:41:08.097Z,98818.00
2023-04-03T22:43:36.521Z,98826.00
2023-04-03T22:46:07.878Z,98829.00
2023-04-03T22:48:35.332Z,98831.00
2023-04-03T22:51:05.453Z,98827.00
2023-04-03T22:53:32.481Z,98838.00
2023-04-03T22:56:00.937Z,98835.00
2023-04-03T22:58:28.315Z,98835.00
2023-04-03T23:01:11.861Z,98847.00
2023-04-03T23:03:40.355Z,98838.00
2023-04-03T23:06:08.517Z,98838.00
2023-04-03T23:08:35.887Z,98841.00
2023-04-03T23:11:02.884Z,98844.00
2023-04-03T23:13:29.960Z,98848.00
2023-04-03T23:16:00.876Z,98843.00
2023-04-03T23:18:29.672Z,98842.00
2023-04-03T23:20:58.620Z,98838.00
2023-04-03T23:23:25.764Z,98853.00
2023-04-03T23:25:59.943Z,98855.00
2023-04-03T23:28:27.639Z,98861.00
2023-04-03T23:31:02.309Z,98859.00
2023-04-03T23:33:30.327Z,98859.00
2023-04-03T23:35:57.413Z,98849.00
2023-04-03T23:38:24.662Z,98852.00
2023-04-03T23:40:51.744Z,98860.00
2023-04-03T23:43:18.827Z,98857.00
2023-04-03T23:45:45.869Z,98863.00
2023-04-03T23:48:12.911Z,98882.00
2023-04-03T23:50:40.128Z,98873.00
2023-04-03T23:53:07.394Z,98875.00
2023-04-03T23:55:34.444Z,98875.00
2023-04-03T23:58:01.463Z,98877.00
